KPUJ

Paulding Northwest Atlanta Airport

Atlanta, Georgia, USA
METAR KPUJ 211955Z AUTO 00000KT 10SM CLR 22/10 A3017 RMK AO2
Observed Flight Rules
Jan-21 @ 19:55 UTC (29 minutes ago) Visual Flight Rules
Wind Visibility Clouds
Calm 10 miles
  • Clear skies
Temperatures Readings
Current 22°C / 72°F
Dewpoint 10°C / 50°F
Humidity 47%
Altimeter 30.17" Hg
Pressure 1022 hPa
Elevation 393
METAR KPUJ 211955Z AUTO 00000KT 10SM CLR 22/10 A3017 RMK AO2
Observed Flight Rules
Jan-21 @ 19:55 UTC
(29 minutes ago)
VFR
Wind Visibility
Calm 10 miles
Clouds
  • Clear skies
Temperature Dewpoint
22°C / 72°F 10°C / 50°F
Humidity Altimeter Pressure
47% 30.17" Hg 1022 hPa